Time,TemperatureF,DewpointF,PressureIn,WindDirection,WindDirectionDegrees,WindSpeedMPH,WindSpeedGustMPH,Humidity,HourlyPrecipIn,Conditions,Clouds,dailyrainin,SoftwareType,DateUTC
2013-01-07 00:00:00,51.2,50.3,30.19,WSW,240,0.0,0.0,97,0.00,,,0.00,WUHU216DAVISVP2,2013-01-07 05:00:00,
2013-01-07 00:01:00,51.2,50.3,30.19,WSW,240,0.0,0.0,97,0.00,,,0.00,WUHU216DAVISVP2,2013-01-07 05:01:00,
2013-01-07 00:06:00,51.2,50.3,30.19,WSW,240,0.0,0.0,97,0.00,,,0.00,WUHU216DAVISVP2,2013-01-07 05:06:00,
2013-01-07 00:11:00,51.2,50.3,30.18,WSW,240,0.0,0.0,97,0.00,,,0.00,WUHU216DAVISVP2,2013-01-07 05:11:00,
2013-01-07 00:16:00,51.2,50.3,30.19,WSW,240,0.0,0.0,97,0.00,,,0.00,WUHU216DAVISVP2,2013-01-07 05:16:00,
2013-01-07 00:21:00,51.1,50.2,30.18,WSW,240,0.0,0.0,97,0.00,,,0.00,WUHU216DAVISVP2,2013-01-07 05:21:00,
2013-01-07 00:26:00,51.2,50.3,30.19,WSW,240,0.0,0.0,97,0.00,,,0.00,WUHU216DAVISVP2,2013-01-07 05:26:00,
2013-01-07 00:31:00,51.2,50.3,30.20,WSW,240,0.0,0.0,97,0.00,,,0.00,WUHU216DAVISVP2,2013-01-07 05:31:00,
2013-01-07 00:36:00,51.1,50.2,30.20,WSW,240,0.0,1.0,97,0.00,,,0.00,WUHU216DAVISVP2,2013-01-07 05:36:00,
2013-01-07 00:41:00,51.2,50.3,30.20,WSW,240,0.0,1.0,97,0.00,,,0.00,WUHU216DAVISVP2,2013-01-07 05:41:00,
2013-01-07 00:46:00,51.1,50.2,30.20,WSW,240,0.0,0.0,97,0.00,,,0.00,WUHU216DAVISVP2,2013-01-07 05:46:00,
2013-01-07 00:51:00,51.1,50.2,30.20,WSW,240,0.0,0.0,97,0.00,,,0.00,WUHU216DAVISVP2,2013-01-07 05:51:00,
2013-01-07 00:56:00,51.2,50.3,30.20,WSW,240,0.0,0.0,97,0.00,,,0.00,WUHU216DAVISVP2,2013-01-07 05:56:00,
2013-01-07 01:01:00,51.3,50.4,30.20,WSW,240,0.0,0.0,97,0.00,,,0.00,WUHU216DAVISVP2,2013-01-07 06:01:00,
2013-01-07 01:06:00,51.3,50.4,30.20,WSW,240,0.0,0.0,97,0.00,,,0.00,WUHU216DAVISVP2,2013-01-07 06:06:00,
2013-01-07 01:11:00,51.2,50.3,30.20,WSW,240,0.0,1.0,97,0.00,,,0.00,WUHU216DAVISVP2,2013-01-07 06:11:00,
2013-01-07 01:16:00,51.1,50.2,30.19,WSW,240,0.0,2.0,97,0.00,,,0.00,WUHU216DAVISVP2,2013-01-07 06:16:00,
2013-01-07 01:21:00,51.1,50.2,30.19,WSW,240,0.0,2.0,97,0.00,,,0.00,WUHU216DAVISVP2,2013-01-07 06:21:00,
2013-01-07 01:26:00,51.1,50.2,30.19,WSW,240,0.0,1.0,97,0.00,,,0.00,WUHU216DAVISVP2,2013-01-07 06:26:00,
2013-01-07 01:31:00,51.2,50.3,30.19,WSW,240,2.0,3.0,97,0.00,,,0.00,WUHU216DAVISVP2,2013-01-07 06:31:00,
2013-01-07 01:36:00,51.2,50.3,30.19,WSW,246,0.0,3.0,97,0.00,,,0.00,WUHU216DAVISVP2,2013-01-07 06:36:00,
2013-01-07 01:41:00,51.2,50.3,30.19,WSW,246,0.0,3.0,97,0.00,,,0.00,WUHU216DAVISVP2,2013-01-07 06:41:00,
2013-01-07 01:46:00,51.2,50.3,30.19,WSW,244,0.0,4.0,97,0.00,,,0.00,WUHU216DAVISVP2,2013-01-07 06:46:00,
2013-01-07 01:51:00,51.2,50.3,30.19,WSW,241,0.0,5.0,97,0.00,,,0.00,WUHU216DAVISVP2,2013-01-07 06:51:00,
2013-01-07 01:56:00,51.2,50.3,30.18,WSW,241,0.0,5.0,97,0.00,,,0.00,WUHU216DAVISVP2,2013-01-07 06:56:00,
2013-01-07 02:01:00,51.3,50.4,30.18,SW,232,4.0,4.0,97,0.00,,,0.00,WUHU216DAVISVP2,2013-01-07 07:01:00,
2013-01-07 02:06:00,51.3,50.4,30.18,WSW,254,0.0,5.0,97,0.00,,,0.00,WUHU216DAVISVP2,2013-01-07 07:06:00,
2013-01-07 02:11:00,51.3,50.2,30.18,WSW,237,0.0,5.0,96,0.00,,,0.00,WUHU216DAVISVP2,2013-01-07 07:11:00,
2013-01-07 02:16:00,51.4,50.3,30.18,WSW,252,0.0,3.0,96,0.00,,,0.00,WUHU216DAVISVP2,2013-01-07 07:16:00,
2013-01-07 02:21:00,51.4,50.3,30.18,SW,235,0.0,5.0,96,0.00,,,0.00,WUHU216DAVISVP2,2013-01-07 07:21:00,
2013-01-07 02:26:00,51.3,50.2,30.18,WSW,243,2.0,5.0,96,0.00,,,0.00,WUHU216DAVISVP2,2013-01-07 07:26:00,
2013-01-07 02:31:00,51.3,50.2,30.19,West,259,0.0,5.0,96,0.00,,,0.00,WUHU216DAVISVP2,2013-01-07 07:31:00,
2013-01-07 02:36:00,51.3,49.9,30.19,West,273,0.0,5.0,95,0.00,,,0.00,WUHU216DAVISVP2,2013-01-07 07:36:00,
2013-01-07 02:41:00,51.2,49.8,30.19,WSW,246,0.0,3.0,95,0.00,,,0.00,WUHU216DAVISVP2,2013-01-07 07:41:00,
2013-01-07 02:46:00,51.2,49.8,30.19,WNW,283,0.0,5.0,95,0.00,,,0.00,WUHU216DAVISVP2,2013-01-07 07:46:00,
2013-01-07 02:51:00,51.1,49.7,30.19,West,268,0.0,5.0,95,0.00,,,0.00,WUHU216DAVISVP2,2013-01-07 07:51:00,
2013-01-07 02:56:00,51.2,49.8,30.19,WSW,243,0.0,5.0,95,0.00,,,0.00,WUHU216DAVISVP2,2013-01-07 07:56:00,
2013-01-07 03:01:00,51.2,49.5,30.20,SW,229,4.0,4.0,94,0.00,,,0.00,WUHU216DAVISVP2,2013-01-07 08:01:00,
2013-01-07 03:06:00,51.1,49.4,30.19,SW,231,0.0,4.0,94,0.00,,,0.00,WUHU216DAVISVP2,2013-01-07 08:06:00,
2013-01-07 03:11:00,51.1,49.4,30.20,WSW,253,3.0,6.0,94,0.00,,,0.00,WUHU216DAVISVP2,2013-01-07 08:11:00,
2013-01-07 03:16:00,51.0,49.3,30.20,West,268,1.0,6.0,94,0.00,,,0.00,WUHU216DAVISVP2,2013-01-07 08:16:00,
2013-01-07 03:21:00,50.8,48.8,30.20,WSW,254,0.0,6.0,93,0.00,,,0.00,WUHU216DAVISVP2,2013-01-07 08:21:00,
2013-01-07 03:26:00,50.8,48.8,30.20,WSW,251,2.0,7.0,93,0.00,,,0.00,WUHU216DAVISVP2,2013-01-07 08:26:00,
2013-01-07 03:31:00,50.7,48.7,30.19,West,279,2.0,7.0,93,0.00,,,0.00,WUHU216DAVISVP2,2013-01-07 08:31:00,
2013-01-07 03:36:00,50.6,48.6,30.19,WSW,248,2.0,6.0,93,0.00,,,0.00,WUHU216DAVISVP2,2013-01-07 08:36:00,
2013-01-07 03:41:00,50.5,48.5,30.19,SW,236,5.0,8.0,93,0.00,,,0.00,WUHU216DAVISVP2,2013-01-07 08:41:00,
2013-01-07 03:46:00,50.5,48.5,30.19,WSW,238,0.0,8.0,93,0.00,,,0.00,WUHU216DAVISVP2,2013-01-07 08:46:00,
2013-01-07 03:51:00,50.5,48.5,30.19,West,265,3.0,6.0,93,0.00,,,0.00,WUHU216DAVISVP2,2013-01-07 08:51:00,
2013-01-07 03:56:00,50.4,48.4,30.19,WNW,282,0.0,7.0,93,0.00,,,0.00,WUHU216DAVISVP2,2013-01-07 08:56:00,
2013-01-07 04:01:00,50.4,48.1,30.18,SW,233,3.0,7.0,92,0.00,,,0.00,WUHU216DAVISVP2,2013-01-07 09:01:00,
2013-01-07 04:06:00,50.3,48.0,30.19,West,275,0.0,6.0,92,0.00,,,0.00,WUHU216DAVISVP2,2013-01-07 09:06:00,
2013-01-07 04:11:00,50.2,47.9,30.20,WSW,253,1.0,6.0,92,0.00,,,0.00,WUHU216DAVISVP2,2013-01-07 09:11:00,
2013-01-07 04:16:00,50.1,47.8,30.20,SW,232,1.0,6.0,92,0.00,,,0.00,WUHU216DAVISVP2,2013-01-07 09:16:00,
2013-01-07 04:21:00,49.9,47.3,30.20,SW,235,6.0,7.0,91,0.00,,,0.00,WUHU216DAVISVP2,2013-01-07 09:21:00,
2013-01-07 04:26:00,49.8,46.9,30.20,SW,232,3.0,7.0,90,0.00,,,0.00,WUHU216DAVISVP2,2013-01-07 09:26:00,
2013-01-07 04:31:00,49.7,46.6,30.20,SW,224,3.0,12.0,89,0.00,,,0.00,WUHU216DAVISVP2,2013-01-07 09:31:00,
2013-01-07 04:36:00,49.7,46.6,30.20,WNW,289,4.0,12.0,89,0.00,,,0.00,WUHU216DAVISVP2,2013-01-07 09:36:00,
2013-01-07 04:41:00,49.6,46.2,30.19,SW,234,3.0,9.0,88,0.00,,,0.00,WUHU216DAVISVP2,2013-01-07 09:41:00,
2013-01-07 04:46:00,49.5,46.1,30.20,WSW,257,7.0,7.0,88,0.00,,,0.00,WUHU216DAVISVP2,2013-01-07 09:46:00,
2013-01-07 04:51:00,49.4,46.3,30.19,SW,223,7.0,10.0,89,0.00,,,0.00,WUHU216DAVISVP2,2013-01-07 09:51:00,
2013-01-07 04:56:00,49.4,46.3,30.20,WNW,295,1.0,12.0,89,0.00,,,0.00,WUHU216DAVISVP2,2013-01-07 09:56:00,
2013-01-07 05:01:00,49.4,46.3,30.19,West,273,0.0,12.0,89,0.00,,,0.00,WUHU216DAVISVP2,2013-01-07 10:01:00,
2013-01-07 05:06:00,49.2,46.1,30.20,West,279,0.0,4.0,89,0.00,,,0.00,WUHU216DAVISVP2,2013-01-07 10:06:00,
2013-01-07 05:11:00,49.0,46.2,30.20,WSW,244,0.0,4.0,90,0.00,,,0.00,WUHU216DAVISVP2,2013-01-07 10:11:00,
2013-01-07 05:16:00,49.0,46.2,30.20,West,264,0.0,5.0,90,0.00,,,0.00,WUHU216DAVISVP2,2013-01-07 10:16:00,
2013-01-07 05:21:00,48.8,46.0,30.20,West,263,0.0,5.0,90,0.00,,,0.00,WUHU216DAVISVP2,2013-01-07 10:21:00,
2013-01-07 05:26:00,48.7,46.1,30.21,WSW,254,0.0,4.0,91,0.00,,,0.00,WUHU216DAVISVP2,2013-01-07 10:26:00,
2013-01-07 05:31:00,48.7,46.1,30.22,WSW,240,0.0,5.0,91,0.00,,,0.00,WUHU216DAVISVP2,2013-01-07 10:31:00,
2013-01-07 05:36:00,48.5,46.0,30.22,WSW,243,0.0,5.0,91,0.00,,,0.00,WUHU216DAVISVP2,2013-01-07 10:36:00,
2013-01-07 05:41:00,48.5,46.0,30.22,West,263,0.0,2.0,91,0.00,,,0.00,WUHU216DAVISVP2,2013-01-07 10:41:00,
2013-01-07 05:46:00,48.4,45.9,30.22,West,263,0.0,2.0,91,0.00,,,0.00,WUHU216DAVISVP2,2013-01-07 10:46:00,
2013-01-07 05:51:00,48.5,46.2,30.21,West,263,0.0,2.0,92,0.00,,,0.00,WUHU216DAVISVP2,2013-01-07 10:51:00,
2013-01-07 05:56:00,48.5,46.0,30.22,West,263,0.0,1.0,91,0.00,,,0.00,WUHU216DAVISVP2,2013-01-07 10:56:00,
2013-01-07 06:01:00,48.4,45.9,30.22,WSW,241,1.0,4.0,91,0.00,,,0.00,WUHU216DAVISVP2,2013-01-07 11:01:00,
2013-01-07 06:06:00,48.4,45.9,30.22,WNW,284,0.0,4.0,91,0.00,,,0.00,WUHU216DAVISVP2,2013-01-07 11:06:00,
2013-01-07 06:11:00,48.4,45.9,30.22,WSW,242,1.0,3.0,91,0.00,,,0.00,WUHU216DAVISVP2,2013-01-07 11:11:00,
2013-01-07 06:16:00,48.5,46.0,30.23,WSW,250,0.0,6.0,91,0.00,,,0.00,WUHU216DAVISVP2,2013-01-07 11:16:00,
2013-01-07 06:21:00,48.5,46.0,30.22,West,281,1.0,6.0,91,0.00,,,0.00,WUHU216DAVISVP2,2013-01-07 11:21:00,
2013-01-07 06:26:00,48.5,46.0,30.22,West,262,1.0,5.0,91,0.00,,,0.00,WUHU216DAVISVP2,2013-01-07 11:26:00,
2013-01-07 06:31:00,48.6,45.8,30.22,West,261,0.0,5.0,90,0.00,,,0.00,WUHU216DAVISVP2,2013-01-07 11:31:00,
2013-01-07 06:36:00,48.6,45.8,30.22,West,265,0.0,3.0,90,0.00,,,0.00,WUHU216DAVISVP2,2013-01-07 11:36:00,
2013-01-07 06:41:00,48.6,45.8,30.22,WSW,257,1.0,3.0,90,0.00,,,0.00,WUHU216DAVISVP2,2013-01-07 11:41:00,
2013-01-07 06:46:00,48.6,45.8,30.22,SW,236,3.0,3.0,90,0.00,,,0.00,WUHU216DAVISVP2,2013-01-07 11:46:00,
2013-01-07 06:51:00,48.8,46.0,30.22,West,279,0.0,4.0,90,0.00,,,0.00,WUHU216DAVISVP2,2013-01-07 11:51:00,
2013-01-07 06:57:00,49.0,46.2,30.23,West,281,0.0,4.0,90,0.00,,,0.00,WUHU216DAVISVP2,2013-01-07 11:57:00,
2013-01-07 07:02:00,49.1,46.3,30.23,WNW,290,0.0,5.0,90,0.00,,,0.00,WUHU216DAVISVP2,2013-01-07 12:02:00,
2013-01-07 07:07:00,49.3,46.5,30.23,West,281,0.0,5.0,90,0.00,,,0.00,WUHU216DAVISVP2,2013-01-07 12:07:00,
2013-01-07 07:12:00,49.5,46.7,30.23,SW,232,2.0,3.0,90,0.00,,,0.00,WUHU216DAVISVP2,2013-01-07 12:12:00,
2013-01-07 07:17:00,49.5,46.4,30.24,NNW,327,0.0,4.0,89,0.00,,,0.00,WUHU216DAVISVP2,2013-01-07 12:17:00,
2013-01-07 07:22:00,49.6,46.5,30.25,West,263,0.0,4.0,89,0.00,,,0.00,WUHU216DAVISVP2,2013-01-07 12:22:00,
2013-01-07 07:27:00,49.7,46.6,30.25,WNW,294,0.0,4.0,89,0.00,,,0.00,WUHU216DAVISVP2,2013-01-07 12:27:00,
2013-01-07 07:31:00,49.9,46.8,30.24,WNW,299,0.0,3.0,89,0.00,,,0.00,WUHU216DAVISVP2,2013-01-07 12:31:00,
2013-01-07 07:37:00,49.9,46.8,30.24,NNW,331,0.0,3.0,89,0.00,,,0.00,WUHU216DAVISVP2,2013-01-07 12:37:00,
2013-01-07 07:42:00,50.1,47.0,30.24,NW,320,1.0,4.0,89,0.00,,,0.00,WUHU216DAVISVP2,2013-01-07 12:42:00,
2013-01-07 07:47:00,50.2,47.1,30.25,NNW,331,0.0,4.0,89,0.00,,,0.00,WUHU216DAVISVP2,2013-01-07 12:47:00,
2013-01-07 07:52:00,50.3,47.1,30.25,West,271,0.0,3.0,89,0.00,,,0.00,WUHU216DAVISVP2,2013-01-07 12:52:00,
2013-01-07 07:57:00,50.4,47.2,30.25,SW,231,0.0,4.0,89,0.00,,,0.00,WUHU216DAVISVP2,2013-01-07 12:57:00,
2013-01-07 08:02:00,50.4,47.2,30.25,SW,217,1.0,4.0,89,0.00,,,0.00,WUHU216DAVISVP2,2013-01-07 13:02:00,
2013-01-07 08:07:00,50.5,47.3,30.25,WSW,257,1.0,4.0,89,0.00,,,0.00,WUHU216DAVISVP2,2013-01-07 13:07:00,
2013-01-07 08:12:00,50.6,47.4,30.26,NNW,330,2.0,4.0,89,0.00,,,0.00,WUHU216DAVISVP2,2013-01-07 13:12:00,
2013-01-07 08:17:00,50.7,47.5,30.25,West,271,0.0,4.0,89,0.00,,,0.00,WUHU216DAVISVP2,2013-01-07 13:17:00,
2013-01-07 08:22:00,50.9,47.7,30.25,West,274,3.0,5.0,89,0.00,,,0.00,WUHU216DAVISVP2,2013-01-07 13:22:00,
2013-01-07 08:27:00,51.1,47.9,30.25,NNW,334,2.0,5.0,89,0.00,,,0.00,WUHU216DAVISVP2,2013-01-07 13:27:00,
2013-01-07 08:32:00,51.3,48.1,30.26,SW,223,1.0,7.0,89,0.00,,,0.00,WUHU216DAVISVP2,2013-01-07 13:32:00,
2013-01-07 08:37:00,51.4,48.2,30.27,West,276,0.0,7.0,89,0.00,,,0.00,WUHU216DAVISVP2,2013-01-07 13:37:00,
2013-01-07 08:42:00,51.7,48.5,30.27,WNW,284,0.0,7.0,89,0.00,,,0.00,WUHU216DAVISVP2,2013-01-07 13:42:00,
2013-01-07 08:47:00,51.9,48.7,30.26,NNW,329,4.0,7.0,89,0.00,,,0.00,WUHU216DAVISVP2,2013-01-07 13:47:00,
2013-01-07 08:52:00,52.1,48.6,30.26,NNW,338,0.0,4.0,88,0.00,,,0.00,WUHU216DAVISVP2,2013-01-07 13:52:00,
2013-01-07 08:57:00,52.3,48.8,30.26,NW,323,0.0,7.0,88,0.00,,,0.00,WUHU216DAVISVP2,2013-01-07 13:57:00,
2013-01-07 09:02:00,52.6,49.4,30.26,NNW,331,0.0,7.0,89,0.00,,,0.00,WUHU216DAVISVP2,2013-01-07 14:02:00,
2013-01-07 09:07:00,53.0,49.5,30.26,NW,310,2.0,5.0,88,0.00,,,0.00,WUHU216DAVISVP2,2013-01-07 14:07:00,
2013-01-07 09:12:00,53.2,49.7,30.27,West,262,0.0,6.0,88,0.00,,,0.00,WUHU216DAVISVP2,2013-01-07 14:12:00,
2013-01-07 09:17:00,53.5,50.0,30.27,West,271,2.0,6.0,88,0.00,,,0.00,WUHU216DAVISVP2,2013-01-07 14:17:00,
2013-01-07 09:22:00,53.7,50.2,30.28,West,275,0.0,6.0,88,0.00,,,0.00,WUHU216DAVISVP2,2013-01-07 14:22:00,
2013-01-07 09:27:00,53.9,50.4,30.28,WSW,252,2.0,6.0,88,0.00,,,0.00,WUHU216DAVISVP2,2013-01-07 14:27:00,
2013-01-07 09:32:00,54.1,50.3,30.28,NNW,328,3.0,6.0,87,0.00,,,0.00,WUHU216DAVISVP2,2013-01-07 14:32:00,
2013-01-07 09:37:00,54.3,50.5,30.28,NW,318,11.0,11.0,87,0.00,,,0.00,WUHU216DAVISVP2,2013-01-07 14:37:00,
2013-01-07 09:42:00,54.5,50.7,30.28,NW,306,2.0,11.0,87,0.00,,,0.00,WUHU216DAVISVP2,2013-01-07 14:42:00,
2013-01-07 09:47:00,54.8,51.0,30.28,West,259,0.0,9.0,87,0.00,,,0.00,WUHU216DAVISVP2,2013-01-07 14:47:00,
2013-01-07 09:52:00,54.9,51.1,30.29,West,269,0.0,6.0,87,0.00,,,0.00,WUHU216DAVISVP2,2013-01-07 14:52:00,
2013-01-07 09:57:00,55.0,50.9,30.29,West,275,0.0,7.0,86,0.00,,,0.00,WUHU216DAVISVP2,2013-01-07 14:57:00,
2013-01-07 10:02:00,55.2,51.4,30.28,WSW,245,3.0,7.0,87,0.00,,,0.00,WUHU216DAVISVP2,2013-01-07 15:02:00,
2013-01-07 10:07:00,55.3,51.5,30.28,West,281,1.0,6.0,87,0.00,,,0.00,WUHU216DAVISVP2,2013-01-07 15:07:00,
2013-01-07 10:11:00,55.6,51.8,30.28,WNW,286,4.0,6.0,87,0.00,,,0.00,WUHU216DAVISVP2,2013-01-07 15:11:00,
2013-01-07 10:16:00,55.9,52.1,30.28,NW,325,0.0,6.0,87,0.00,,,0.00,WUHU216DAVISVP2,2013-01-07 15:16:00,
2013-01-07 10:22:00,56.1,52.3,30.29,NNW,338,0.0,6.0,87,0.00,,,0.00,WUHU216DAVISVP2,2013-01-07 15:22:00,
2013-01-07 10:27:00,56.5,52.7,30.29,West,279,2.0,6.0,87,0.00,,,0.00,WUHU216DAVISVP2,2013-01-07 15:27:00,
2013-01-07 10:32:00,56.9,53.1,30.28,NNW,329,3.0,6.0,87,0.00,,,0.00,WUHU216DAVISVP2,2013-01-07 15:32:00,
2013-01-07 10:37:00,57.3,53.1,30.28,WNW,298,3.0,9.0,86,0.00,,,0.00,WUHU216DAVISVP2,2013-01-07 15:37:00,
2013-01-07 10:42:00,57.4,53.2,30.29,West,281,3.0,9.0,86,0.00,,,0.00,WUHU216DAVISVP2,2013-01-07 15:42:00,
2013-01-07 10:47:00,57.3,52.8,30.29,West,259,3.0,8.0,85,0.00,,,0.00,WUHU216DAVISVP2,2013-01-07 15:47:00,
2013-01-07 10:52:00,57.4,53.2,30.29,NNW,331,3.0,6.0,86,0.00,,,0.00,WUHU216DAVISVP2,2013-01-07 15:52:00,
2013-01-07 10:57:00,57.6,53.4,30.29,WSW,254,0.0,5.0,86,0.00,,,0.00,WUHU216DAVISVP2,2013-01-07 15:57:00,
2013-01-07 11:02:00,57.7,53.2,30.29,WNW,282,1.0,9.0,85,0.00,,,0.00,WUHU216DAVISVP2,2013-01-07 16:02:00,
2013-01-07 11:07:00,57.7,53.2,30.28,NNW,335,0.0,9.0,85,0.00,,,0.00,WUHU216DAVISVP2,2013-01-07 16:07:00,
2013-01-07 11:12:00,57.8,53.3,30.28,NW,326,6.0,11.0,85,0.00,,,0.00,WUHU216DAVISVP2,2013-01-07 16:12:00,
2013-01-07 11:16:00,57.8,53.3,30.28,NW,319,3.0,11.0,85,0.00,,,0.00,WUHU216DAVISVP2,2013-01-07 16:16:00,
2013-01-07 11:21:00,57.8,53.6,30.28,SW,236,0.0,10.0,86,0.00,,,0.00,WUHU216DAVISVP2,2013-01-07 16:21:00,
2013-01-07 11:26:00,57.9,53.7,30.28,WNW,284,1.0,8.0,86,0.00,,,0.00,WUHU216DAVISVP2,2013-01-07 16:26:00,
2013-01-07 11:31:00,58.0,53.5,30.28,NNW,342,4.0,8.0,85,0.00,,,0.00,WUHU216DAVISVP2,2013-01-07 16:31:00,
2013-01-07 11:37:00,58.2,53.7,30.28,WSW,253,5.0,9.0,85,0.00,,,0.00,WUHU216DAVISVP2,2013-01-07 16:37:00,
2013-01-07 11:42:00,58.4,53.9,30.27,NNW,330,1.0,9.0,85,0.00,,,0.00,WUHU216DAVISVP2,2013-01-07 16:42:00,
2013-01-07 11:47:00,58.6,54.1,30.25,NW,318,4.0,9.0,85,0.00,,,0.00,WUHU216DAVISVP2,2013-01-07 16:47:00,
2013-01-07 11:52:00,58.7,53.9,30.26,NNW,336,0.0,9.0,84,0.00,,,0.00,WUHU216DAVISVP2,2013-01-07 16:52:00,
2013-01-07 11:57:00,58.9,54.1,30.27,NNW,336,0.0,6.0,84,0.00,,,0.00,WUHU216DAVISVP2,2013-01-07 16:57:00,
2013-01-07 12:02:00,59.1,54.3,30.26,NW,326,3.0,6.0,84,0.00,,,0.00,WUHU216DAVISVP2,2013-01-07 17:02:00,
2013-01-07 12:07:00,59.3,54.5,30.25,WNW,286,1.0,7.0,84,0.00,,,0.00,WUHU216DAVISVP2,2013-01-07 17:07:00,
2013-01-07 12:12:00,59.4,54.3,30.25,West,259,0.0,9.0,83,0.00,,,0.00,WUHU216DAVISVP2,2013-01-07 17:12:00,
2013-01-07 12:16:00,59.6,54.5,30.25,West,281,5.0,9.0,83,0.00,,,0.00,WUHU216DAVISVP2,2013-01-07 17:16:00,
2013-01-07 12:21:00,59.6,54.5,30.25,West,271,3.0,7.0,83,0.00,,,0.00,WUHU216DAVISVP2,2013-01-07 17:21:00,
2013-01-07 12:26:00,59.5,54.4,30.25,NNW,333,2.0,10.0,83,0.00,,,0.00,WUHU216DAVISVP2,2013-01-07 17:26:00,
2013-01-07 12:31:00,59.6,54.5,30.25,WNW,292,0.0,10.0,83,0.00,,,0.00,WUHU216DAVISVP2,2013-01-07 17:31:00,
2013-01-07 12:36:00,59.7,54.6,30.25,West,259,0.0,9.0,83,0.00,,,0.00,WUHU216DAVISVP2,2013-01-07 17:36:00,
2013-01-07 12:41:00,59.8,54.7,30.25,West,265,3.0,9.0,83,0.00,,,0.00,WUHU216DAVISVP2,2013-01-07 17:41:00,
2013-01-07 12:46:00,59.7,54.2,30.24,NNW,330,0.0,9.0,82,0.00,,,0.00,WUHU216DAVISVP2,2013-01-07 17:46:00,
2013-01-07 12:51:00,59.7,54.6,30.24,West,275,0.0,9.0,83,0.00,,,0.00,WUHU216DAVISVP2,2013-01-07 17:51:00,
2013-01-07 12:57:00,59.8,54.7,30.24,West,267,2.0,8.0,83,0.00,,,0.00,WUHU216DAVISVP2,2013-01-07 17:57:00,
2013-01-07 13:01:00,59.8,54.7,30.24,West,278,2.0,9.0,83,0.00,,,0.00,WUHU216DAVISVP2,2013-01-07 18:01:00,
2013-01-07 13:07:00,59.8,54.7,30.23,West,279,3.0,9.0,83,0.00,,,0.00,WUHU216DAVISVP2,2013-01-07 18:07:00,
2013-01-07 13:12:00,59.8,55.0,30.23,NW,316,3.0,7.0,84,0.00,,,0.00,WUHU216DAVISVP2,2013-01-07 18:12:00,
2013-01-07 13:17:00,59.7,55.2,30.24,West,267,0.0,7.0,85,0.00,,,0.00,WUHU216DAVISVP2,2013-01-07 18:17:00,
2013-01-07 13:22:00,59.6,54.8,30.24,North,5,0.0,6.0,84,0.00,,,0.00,WUHU216DAVISVP2,2013-01-07 18:22:00,
2013-01-07 13:27:00,59.4,54.9,30.24,NNW,337,0.0,6.0,85,0.00,,,0.00,WUHU216DAVISVP2,2013-01-07 18:27:00,
2013-01-07 13:32:00,59.3,54.8,30.23,West,273,0.0,8.0,85,0.00,,,0.00,WUHU216DAVISVP2,2013-01-07 18:32:00,
2013-01-07 13:37:00,59.3,54.8,30.23,NW,322,0.0,8.0,85,0.00,,,0.00,WUHU216DAVISVP2,2013-01-07 18:37:00,
2013-01-07 13:42:00,59.3,54.8,30.23,SW,228,6.0,9.0,85,0.00,,,0.00,WUHU216DAVISVP2,2013-01-07 18:42:00,
2013-01-07 13:47:00,59.7,55.2,30.23,WSW,253,4.0,11.0,85,0.00,,,0.00,WUHU216DAVISVP2,2013-01-07 18:47:00,
2013-01-07 13:52:00,60.3,55.8,30.23,WNW,283,2.0,11.0,85,0.00,,,0.00,WUHU216DAVISVP2,2013-01-07 18:52:00,
2013-01-07 13:56:00,60.9,55.7,30.23,NNW,339,4.0,7.0,83,0.00,,,0.00,WUHU216DAVISVP2,2013-01-07 18:56:00,
2013-01-07 14:01:00,61.0,55.8,30.23,SW,231,2.0,11.0,83,0.00,,,0.00,WUHU216DAVISVP2,2013-01-07 19:01:00,
2013-01-07 14:07:00,61.0,55.8,30.23,NW,321,0.0,11.0,83,0.00,,,0.00,WUHU216DAVISVP2,2013-01-07 19:07:00,
2013-01-07 14:12:00,61.2,56.0,30.23,SE,134,2.0,9.0,83,0.00,,,0.00,WUHU216DAVISVP2,2013-01-07 19:12:00,
2013-01-07 14:17:00,61.4,55.9,30.23,ESE,104,6.0,12.0,82,0.00,,,0.00,WUHU216DAVISVP2,2013-01-07 19:17:00,
2013-01-07 14:22:00,61.2,55.7,30.23,NW,315,0.0,12.0,82,0.00,,,0.00,WUHU216DAVISVP2,2013-01-07 19:22:00,
2013-01-07 14:27:00,61.2,55.7,30.23,West,263,5.0,11.0,82,0.00,,,0.00,WUHU216DAVISVP2,2013-01-07 19:27:00,
2013-01-07 14:32:00,61.2,56.0,30.23,North,360,3.0,9.0,83,0.00,,,0.00,WUHU216DAVISVP2,2013-01-07 19:32:00,
2013-01-07 14:37:00,61.3,55.8,30.23,WNW,289,3.0,11.0,82,0.00,,,0.00,WUHU216DAVISVP2,2013-01-07 19:37:00,
2013-01-07 14:42:00,61.1,55.6,30.23,WSW,258,2.0,11.0,82,0.00,,,0.00,WUHU216DAVISVP2,2013-01-07 19:42:00,
2013-01-07 14:47:00,61.2,56.0,30.23,WSW,251,3.0,12.0,83,0.00,,,0.00,WUHU216DAVISVP2,2013-01-07 19:47:00,
2013-01-07 14:52:00,61.4,55.9,30.23,NW,310,3.0,12.0,82,0.00,,,0.00,WUHU216DAVISVP2,2013-01-07 19:52:00,
2013-01-07 14:57:00,61.3,55.8,30.23,NNW,333,2.0,9.0,82,0.00,,,0.00,WUHU216DAVISVP2,2013-01-07 19:57:00,
2013-01-07 15:02:00,61.2,55.4,30.24,NNW,332,5.0,10.0,81,0.00,,,0.00,WUHU216DAVISVP2,2013-01-07 20:02:00,
2013-01-07 15:07:00,61.0,55.5,30.24,North,351,3.0,14.0,82,0.00,,,0.00,WUHU216DAVISVP2,2013-01-07 20:07:00,
2013-01-07 15:12:00,60.8,55.3,30.24,WNW,302,4.0,14.0,82,0.00,,,0.00,WUHU216DAVISVP2,2013-01-07 20:12:00,
2013-01-07 15:17:00,60.8,55.0,30.24,NW,310,3.0,11.0,81,0.00,,,0.00,WUHU216DAVISVP2,2013-01-07 20:17:00,
2013-01-07 15:19:00,60.7,54.9,30.24,West,274,3.0,12.0,81,0.00,,,0.00,WUHU216DAVISVP2,2013-01-07 20:19:00,
2013-01-07 15:24:00,60.5,54.7,30.24,SSW,213,4.0,12.0,81,0.00,,,0.00,WUHU216DAVISVP2,2013-01-07 20:24:00,
2013-01-07 15:29:00,60.4,54.3,30.24,NNW,327,6.0,12.0,80,0.00,,,0.00,WUHU216DAVISVP2,2013-01-07 20:29:00,
2013-01-07 15:34:00,60.2,54.1,30.24,WSW,241,3.0,12.0,80,0.00,,,0.00,WUHU216DAVISVP2,2013-01-07 20:34:00,
2013-01-07 15:39:00,60.2,54.7,30.24,WNW,301,5.0,11.0,82,0.00,,,0.00,WUHU216DAVISVP2,2013-01-07 20:39:00,
2013-01-07 15:44:00,60.0,54.8,30.24,West,260,3.0,9.0,83,0.00,,,0.00,WUHU216DAVISVP2,2013-01-07 20:44:00,
2013-01-07 15:49:00,59.5,54.7,30.24,WNW,282,0.0,12.0,84,0.00,,,0.00,WUHU216DAVISVP2,2013-01-07 20:49:00,
2013-01-07 15:54:00,59.2,54.7,30.24,NNW,333,2.0,12.0,85,0.00,,,0.00,WUHU216DAVISVP2,2013-01-07 20:54:00,
2013-01-07 15:59:00,59.0,54.8,30.24,NNW,342,2.0,9.0,86,0.00,,,0.00,WUHU216DAVISVP2,2013-01-07 20:59:00,
2013-01-07 16:04:00,58.7,54.5,30.24,West,261,3.0,11.0,86,0.00,,,0.00,WUHU216DAVISVP2,2013-01-07 21:04:00,
2013-01-07 16:09:00,58.5,54.3,30.24,West,273,3.0,16.0,86,0.00,,,0.00,WUHU216DAVISVP2,2013-01-07 21:09:00,
2013-01-07 16:14:00,58.5,54.3,30.24,WSW,248,0.0,16.0,86,0.00,,,0.00,WUHU216DAVISVP2,2013-01-07 21:14:00,
2013-01-07 16:19:00,58.5,54.6,30.24,NW,311,6.0,11.0,87,0.00,,,0.00,WUHU216DAVISVP2,2013-01-07 21:19:00,
2013-01-07 16:24:00,58.4,54.2,30.24,West,281,2.0,11.0,86,0.00,,,0.00,WUHU216DAVISVP2,2013-01-07 21:24:00,
2013-01-07 16:29:00,58.5,54.6,30.25,West,263,1.0,7.0,87,0.00,,,0.00,WUHU216DAVISVP2,2013-01-07 21:29:00,
2013-01-07 16:34:00,58.5,54.6,30.25,WNW,292,3.0,7.0,87,0.00,,,0.00,WUHU216DAVISVP2,2013-01-07 21:34:00,
2013-01-07 16:39:00,58.5,54.3,30.24,WNW,292,2.0,9.0,86,0.00,,,0.00,WUHU216DAVISVP2,2013-01-07 21:39:00,
2013-01-07 16:44:00,58.5,54.6,30.24,North,355,4.0,9.0,87,0.00,,,0.00,WUHU216DAVISVP2,2013-01-07 21:44:00,
2013-01-07 16:49:00,58.4,54.5,30.24,NW,304,4.0,10.0,87,0.00,,,0.00,WUHU216DAVISVP2,2013-01-07 21:49:00,
2013-01-07 16:54:00,58.3,54.4,30.24,WNW,283,3.0,11.0,87,0.00,,,0.00,WUHU216DAVISVP2,2013-01-07 21:54:00,
2013-01-07 16:59:00,58.2,54.3,30.24,WNW,283,3.0,11.0,87,0.00,,,0.00,WUHU216DAVISVP2,2013-01-07 21:59:00,
2013-01-07 17:04:00,58.1,54.2,30.24,WSW,246,4.0,11.0,87,0.00,,,0.00,WUHU216DAVISVP2,2013-01-07 22:04:00,
2013-01-07 17:09:00,58.0,54.1,30.24,West,279,2.0,10.0,87,0.00,,,0.00,WUHU216DAVISVP2,2013-01-07 22:09:00,
2013-01-07 17:14:00,57.9,54.3,30.24,SW,222,3.0,9.0,88,0.00,,,0.00,WUHU216DAVISVP2,2013-01-07 22:14:00,
2013-01-07 17:19:00,57.9,54.3,30.24,WNW,284,3.0,6.0,88,0.00,,,0.00,WUHU216DAVISVP2,2013-01-07 22:19:00,
2013-01-07 17:24:00,57.8,54.2,30.24,West,264,1.0,7.0,88,0.00,,,0.00,WUHU216DAVISVP2,2013-01-07 22:24:00,
2013-01-07 17:29:00,57.7,54.5,30.24,WNW,297,0.0,7.0,89,0.00,,,0.00,WUHU216DAVISVP2,2013-01-07 22:29:00,
2013-01-07 17:34:00,57.7,54.5,30.25,NW,306,1.0,6.0,89,0.00,,,0.00,WUHU216DAVISVP2,2013-01-07 22:34:00,
2013-01-07 17:39:00,57.7,54.5,30.25,NW,316,2.0,6.0,89,0.00,,,0.00,WUHU216DAVISVP2,2013-01-07 22:39:00,
2013-01-07 17:44:00,57.7,54.5,30.25,WNW,293,1.0,6.0,89,0.00,,,0.00,WUHU216DAVISVP2,2013-01-07 22:44:00,
2013-01-07 17:49:00,57.8,54.6,30.25,NW,304,0.0,4.0,89,0.00,,,0.00,WUHU216DAVISVP2,2013-01-07 22:49:00,
2013-01-07 17:54:00,57.8,54.6,30.25,WNW,297,2.0,6.0,89,0.00,,,0.00,WUHU216DAVISVP2,2013-01-07 22:54:00,
2013-01-07 17:59:00,57.9,54.7,30.25,WSW,257,6.0,6.0,89,0.00,,,0.00,WUHU216DAVISVP2,2013-01-07 22:59:00,
2013-01-07 18:04:00,58.0,54.8,30.25,NNW,327,1.0,7.0,89,0.00,,,0.00,WUHU216DAVISVP2,2013-01-07 23:04:00,
2013-01-07 18:09:00,58.1,54.5,30.25,North,360,0.0,8.0,88,0.00,,,0.00,WUHU216DAVISVP2,2013-01-07 23:09:00,
2013-01-07 18:14:00,58.2,54.6,30.25,West,269,0.0,8.0,88,0.00,,,0.00,WUHU216DAVISVP2,2013-01-07 23:14:00,
2013-01-07 18:19:00,58.3,54.7,30.25,WNW,300,3.0,7.0,88,0.00,,,0.00,WUHU216DAVISVP2,2013-01-07 23:19:00,
2013-01-07 18:24:00,58.3,54.4,30.25,NW,306,3.0,7.0,87,0.00,,,0.00,WUHU216DAVISVP2,2013-01-07 23:24:00,
2013-01-07 18:29:00,58.4,54.8,30.25,NNW,336,2.0,7.0,88,0.00,,,0.00,WUHU216DAVISVP2,2013-01-07 23:29:00,
2013-01-07 18:34:00,58.5,54.6,30.25,NNW,333,0.0,9.0,87,0.00,,,0.00,WUHU216DAVISVP2,2013-01-07 23:34:00,
2013-01-07 18:39:00,58.5,54.9,30.25,West,279,2.0,9.0,88,0.00,,,0.00,WUHU216DAVISVP2,2013-01-07 23:39:00,
2013-01-07 18:44:00,58.6,54.7,30.25,WSW,237,0.0,10.0,87,0.00,,,0.00,WUHU216DAVISVP2,2013-01-07 23:44:00,
2013-01-07 18:49:00,58.6,54.7,30.25,WSW,242,4.0,10.0,87,0.00,,,0.00,WUHU216DAVISVP2,2013-01-07 23:49:00,
2013-01-07 18:54:00,58.7,54.8,30.26,NW,308,0.0,6.0,87,0.00,,,0.00,WUHU216DAVISVP2,2013-01-07 23:54:00,
2013-01-07 18:59:00,58.8,54.9,30.26,NNW,333,1.0,9.0,87,0.00,,,0.00,WUHU216DAVISVP2,2013-01-07 23:59:00,
2013-01-07 19:04:00,58.8,54.9,30.25,West,270,6.0,9.0,87,0.00,,,0.00,WUHU216DAVISVP2,2013-01-08 00:04:00,
2013-01-07 19:09:00,58.8,54.9,30.25,WNW,294,0.0,8.0,87,0.00,,,0.00,WUHU216DAVISVP2,2013-01-08 00:09:00,
2013-01-07 19:14:00,58.8,54.9,30.25,NW,317,0.0,8.0,87,0.00,,,0.00,WUHU216DAVISVP2,2013-01-08 00:14:00,
2013-01-07 19:19:00,58.7,55.1,30.26,NNW,342,2.0,6.0,88,0.00,,,0.00,WUHU216DAVISVP2,2013-01-08 00:19:00,
2013-01-07 19:24:00,58.8,55.2,30.25,WNW,303,2.0,6.0,88,0.00,,,0.00,WUHU216DAVISVP2,2013-01-08 00:24:00,
2013-01-07 19:29:00,58.8,55.2,30.25,WSW,258,2.0,9.0,88,0.00,,,0.00,WUHU216DAVISVP2,2013-01-08 00:29:00,
2013-01-07 19:34:00,58.8,55.2,30.25,West,279,5.0,9.0,88,0.00,,,0.00,WUHU216DAVISVP2,2013-01-08 00:34:00,
2013-01-07 19:39:00,58.8,55.2,30.25,WSW,254,1.0,9.0,88,0.00,,,0.00,WUHU216DAVISVP2,2013-01-08 00:39:00,
2013-01-07 19:44:00,58.8,55.2,30.25,West,269,2.0,6.0,88,0.00,,,0.00,WUHU216DAVISVP2,2013-01-08 00:44:00,
2013-01-07 19:49:00,58.8,55.2,30.26,NNW,334,0.0,9.0,88,0.00,,,0.00,WUHU216DAVISVP2,2013-01-08 00:49:00,
2013-01-07 19:54:00,58.8,55.2,30.26,West,274,2.0,9.0,88,0.00,,,0.00,WUHU216DAVISVP2,2013-01-08 00:54:00,
2013-01-07 19:59:00,58.8,55.2,30.26,WNW,299,0.0,9.0,88,0.00,,,0.00,WUHU216DAVISVP2,2013-01-08 00:59:00,
2013-01-07 20:04:00,58.8,55.2,30.26,West,261,0.0,9.0,88,0.00,,,0.00,WUHU216DAVISVP2,2013-01-08 01:04:00,
2013-01-07 20:09:00,58.9,55.3,30.26,NNW,336,0.0,7.0,88,0.00,,,0.00,WUHU216DAVISVP2,2013-01-08 01:09:00,
2013-01-07 20:14:00,58.9,55.3,30.25,WNW,290,1.0,7.0,88,0.00,,,0.00,WUHU216DAVISVP2,2013-01-08 01:14:00,
2013-01-07 20:19:00,58.9,55.3,30.25,NW,321,1.0,9.0,88,0.00,,,0.00,WUHU216DAVISVP2,2013-01-08 01:19:00,
2013-01-07 20:24:00,58.9,55.3,30.25,WSW,248,0.0,9.0,88,0.00,,,0.00,WUHU216DAVISVP2,2013-01-08 01:24:00,
2013-01-07 20:29:00,58.9,55.3,30.25,NW,319,0.0,7.0,88,0.00,,,0.00,WUHU216DAVISVP2,2013-01-08 01:29:00,
2013-01-07 20:34:00,59.0,55.4,30.25,NNW,338,1.0,9.0,88,0.00,,,0.00,WUHU216DAVISVP2,2013-01-08 01:34:00,
2013-01-07 20:39:00,59.0,55.4,30.25,NW,315,3.0,9.0,88,0.00,,,0.00,WUHU216DAVISVP2,2013-01-08 01:39:00,
2013-01-07 20:44:00,59.0,55.4,30.25,West,276,0.0,6.0,88,0.00,,,0.00,WUHU216DAVISVP2,2013-01-08 01:44:00,
2013-01-07 20:49:00,59.1,55.5,30.25,WSW,237,3.0,10.0,88,0.00,,,0.00,WUHU216DAVISVP2,2013-01-08 01:49:00,
2013-01-07 20:54:00,59.2,55.6,30.25,WSW,258,0.0,12.0,88,0.00,,,0.00,WUHU216DAVISVP2,2013-01-08 01:54:00,
2013-01-07 20:59:00,59.2,55.6,30.26,WSW,248,5.0,12.0,88,0.00,,,0.00,WUHU216DAVISVP2,2013-01-08 01:59:00,
2013-01-07 21:04:00,59.2,55.6,30.25,WSW,239,3.0,9.0,88,0.00,,,0.00,WUHU216DAVISVP2,2013-01-08 02:04:00,
2013-01-07 21:09:00,59.2,55.6,30.25,NNW,327,0.0,9.0,88,0.00,,,0.00,WUHU216DAVISVP2,2013-01-08 02:09:00,
2013-01-07 21:14:00,59.2,55.6,30.26,NNW,342,4.0,7.0,88,0.00,,,0.00,WUHU216DAVISVP2,2013-01-08 02:14:00,
2013-01-07 21:19:00,59.2,55.6,30.26,NNW,329,3.0,6.0,88,0.00,,,0.00,WUHU216DAVISVP2,2013-01-08 02:19:00,
2013-01-07 21:24:00,59.2,55.6,30.25,NNW,348,3.0,6.0,88,0.00,,,0.00,WUHU216DAVISVP2,2013-01-08 02:24:00,
2013-01-07 21:29:00,59.3,55.7,30.25,West,272,0.0,6.0,88,0.00,,,0.00,WUHU216DAVISVP2,2013-01-08 02:29:00,
2013-01-07 21:34:00,59.3,55.7,30.25,NW,316,1.0,7.0,88,0.00,,,0.00,WUHU216DAVISVP2,2013-01-08 02:34:00,
2013-01-07 21:39:00,59.3,55.7,30.25,West,273,0.0,7.0,88,0.00,,,0.00,WUHU216DAVISVP2,2013-01-08 02:39:00,
2013-01-07 21:44:00,59.3,55.7,30.25,West,265,1.0,6.0,88,0.00,,,0.00,WUHU216DAVISVP2,2013-01-08 02:44:00,
2013-01-07 21:49:00,59.3,55.7,30.25,West,266,3.0,6.0,88,0.00,,,0.00,WUHU216DAVISVP2,2013-01-08 02:49:00,
2013-01-07 21:54:00,59.4,55.8,30.25,West,272,3.0,6.0,88,0.00,,,0.00,WUHU216DAVISVP2,2013-01-08 02:54:00,
2013-01-07 21:59:00,59.4,55.8,30.25,West,271,1.0,7.0,88,0.00,,,0.00,WUHU216DAVISVP2,2013-01-08 02:59:00,
2013-01-07 22:04:00,59.4,55.8,30.25,West,266,0.0,7.0,88,0.00,,,0.00,WUHU216DAVISVP2,2013-01-08 03:04:00,
2013-01-07 22:09:00,59.5,55.9,30.25,WNW,284,0.0,5.0,88,0.00,,,0.00,WUHU216DAVISVP2,2013-01-08 03:09:00,
2013-01-07 22:14:00,59.5,55.9,30.25,West,269,0.0,5.0,88,0.00,,,0.00,WUHU216DAVISVP2,2013-01-08 03:14:00,
2013-01-07 22:19:00,59.5,56.2,30.25,NNW,329,0.0,5.0,89,0.00,,,0.00,WUHU216DAVISVP2,2013-01-08 03:19:00,
2013-01-07 22:24:00,59.5,56.2,30.25,WNW,299,1.0,6.0,89,0.00,,,0.00,WUHU216DAVISVP2,2013-01-08 03:24:00,
2013-01-07 22:29:00,59.6,56.3,30.25,NW,318,0.0,6.0,89,0.00,,,0.00,WUHU216DAVISVP2,2013-01-08 03:29:00,
2013-01-07 22:34:00,59.6,56.3,30.25,NNW,338,3.0,5.0,89,0.00,,,0.00,WUHU216DAVISVP2,2013-01-08 03:34:00,
2013-01-07 22:39:00,59.6,56.3,30.25,WNW,292,1.0,5.0,89,0.00,,,0.00,WUHU216DAVISVP2,2013-01-08 03:39:00,
2013-01-07 22:44:00,59.7,56.4,30.25,NNW,337,2.0,5.0,89,0.00,,,0.00,WUHU216DAVISVP2,2013-01-08 03:44:00,
2013-01-07 22:49:00,59.7,56.4,30.25,WNW,286,0.0,5.0,89,0.00,,,0.00,WUHU216DAVISVP2,2013-01-08 03:49:00,
2013-01-07 22:54:00,59.7,56.4,30.25,West,279,2.0,4.0,89,0.00,,,0.00,WUHU216DAVISVP2,2013-01-08 03:54:00,
2013-01-07 22:59:00,59.7,56.4,30.25,West,270,1.0,5.0,89,0.00,,,0.00,WUHU216DAVISVP2,2013-01-08 03:59:00,
2013-01-07 23:04:00,59.7,56.7,30.24,WNW,286,0.0,5.0,90,0.00,,,0.00,WUHU216DAVISVP2,2013-01-08 04:04:00,
2013-01-07 23:09:00,59.6,56.6,30.24,West,263,2.0,4.0,90,0.00,,,0.00,WUHU216DAVISVP2,2013-01-08 04:09:00,
2013-01-07 23:14:00,59.6,56.6,30.24,WSW,240,0.0,4.0,90,0.00,,,0.00,WUHU216DAVISVP2,2013-01-08 04:14:00,
2013-01-07 23:19:00,59.6,56.6,30.24,WNW,292,0.0,4.0,90,0.00,,,0.00,WUHU216DAVISVP2,2013-01-08 04:19:00,
2013-01-07 23:24:00,59.6,56.6,30.24,NW,324,0.0,3.0,90,0.00,,,0.00,WUHU216DAVISVP2,2013-01-08 04:24:00,
2013-01-07 23:29:00,59.6,56.6,30.23,West,267,0.0,4.0,90,0.00,,,0.00,WUHU216DAVISVP2,2013-01-08 04:29:00,
2013-01-07 23:34:00,59.6,56.6,30.23,NNW,333,0.0,4.0,90,0.00,,,0.00,WUHU216DAVISVP2,2013-01-08 04:34:00,
2013-01-07 23:39:00,59.6,56.6,30.23,NW,325,3.0,4.0,90,0.00,,,0.00,WUHU216DAVISVP2,2013-01-08 04:39:00,
2013-01-07 23:44:00,59.6,56.9,30.23,North,355,3.0,3.0,91,0.00,,,0.00,WUHU216DAVISVP2,2013-01-08 04:44:00,
2013-01-07 23:49:00,59.5,56.8,30.23,NW,306,0.0,4.0,91,0.00,,,0.00,WUHU216DAVISVP2,2013-01-08 04:49:00,
2013-01-07 23:54:00,59.5,56.8,30.22,West,268,0.0,4.0,91,0.00,,,0.00,WUHU216DAVISVP2,2013-01-08 04:54:00,
2013-01-07 23:59:00,59.5,56.8,30.22,NW,314,1.0,2.0,91,0.00,,,0.00,WUHU216DAVISVP2,2013-01-08 04:59:00,